Belews Creek, North Carolina
Current Conditions -  °F | °C
As of 12:54 PM on Friday 19 Dec 2014 (Local Time) from KINT Reporting Station
Clear Clear  
Wind Chill: 50°   Ceiling: Unl
Heat Index: 50°   Visibility: 10mi
Dew Point: 19°   Wind: 6mph
Humidity: 29%   Direction: NA
Pressure: 30.12"   Gusts: NA
Location:  36.24°N, 80.07°W
Report Text: KINT 191754Z VRB05KT 10SM CLR 10/M07 A3012 RMK AO2 SLP200 T01001072 10106 20033 58020
Loading
Personal Weather Stations






























Interactive Weather Map New forecast layout! Learn more

10-Day Weather Forecast

Advertisements
Track Severe Weather on mobile